createdAt,value
2019-02-16T00:02:16.551Z,6.40
2019-02-16T00:04:44.993Z,6.40
2019-02-16T00:07:13.431Z,6.40
2019-02-16T00:09:41.879Z,6.30
2019-02-16T00:12:10.331Z,6.40
2019-02-16T00:14:38.794Z,6.10
2019-02-16T00:17:07.429Z,6.10
2019-02-16T00:19:35.884Z,6.10
2019-02-16T00:22:04.410Z,5.90
2019-02-16T00:24:32.841Z,5.90
2019-02-16T00:27:01.557Z,5.90
2019-02-16T00:29:30.177Z,5.80
2019-02-16T00:31:59.018Z,5.80
2019-02-16T00:34:27.445Z,5.70
2019-02-16T00:36:55.893Z,5.50
2019-02-16T00:39:24.455Z,5.50
2019-02-16T00:41:53.026Z,5.40
2019-02-16T00:44:21.462Z,5.40
2019-02-16T00:46:49.915Z,5.40
2019-02-16T00:49:18.368Z,5.50
2019-02-16T00:51:46.821Z,5.40
2019-02-16T00:54:15.253Z,5.40
2019-02-16T00:56:43.724Z,5.20
2019-02-16T00:59:12.164Z,5.20
2019-02-16T01:01:40.633Z,5.30
2019-02-16T01:04:09.069Z,5.20
2019-02-16T01:06:37.510Z,5.10
2019-02-16T01:09:06.687Z,5.20
2019-02-16T01:11:35.139Z,5.20
2019-02-16T01:14:03.638Z,5.30
2019-02-16T01:16:32.102Z,5.20
2019-02-16T01:19:00.534Z,5.30
2019-02-16T01:21:28.978Z,5.30
2019-02-16T01:23:57.678Z,5.30
2019-02-16T01:26:26.138Z,5.40
2019-02-16T01:28:54.562Z,5.40
2019-02-16T01:31:23.022Z,5.50
2019-02-16T01:33:51.454Z,5.60
2019-02-16T01:36:19.900Z,5.40
2019-02-16T01:38:48.338Z,5.50
2019-02-16T01:41:16.790Z,5.50
2019-02-16T01:43:45.389Z,5.50
2019-02-16T01:46:13.846Z,5.40
2019-02-16T01:48:42.446Z,5.50
2019-02-16T01:51:10.903Z,5.40
2019-02-16T01:53:39.332Z,5.50
2019-02-16T01:56:07.767Z,5.50
2019-02-16T01:58:36.461Z,5.40
2019-02-16T02:01:04.972Z,5.40
2019-02-16T02:03:33.431Z,5.30
2019-02-16T02:06:01.850Z,5.40
2019-02-16T02:08:30.307Z,5.40
2019-02-16T02:10:58.819Z,5.30
2019-02-16T02:13:27.261Z,5.40
2019-02-16T02:15:55.712Z,5.30
2019-02-16T02:18:24.163Z,5.20
2019-02-16T02:20:52.591Z,5.20
2019-02-16T02:23:21.055Z,5.10
2019-02-16T02:25:49.558Z,5.20
2019-02-16T02:28:18.015Z,5.20
2019-02-16T02:30:46.462Z,5.20
2019-02-16T02:33:15.013Z,5.20
2019-02-16T02:35:43.452Z,5.20
2019-02-16T02:38:11.907Z,5.30
2019-02-16T02:40:40.341Z,5.30
2019-02-16T02:43:08.789Z,5.40
2019-02-16T02:45:37.217Z,5.30
2019-02-16T02:48:05.677Z,5.30
2019-02-16T02:50:34.254Z,5.20
2019-02-16T02:53:02.793Z,5.20
2019-02-16T02:55:31.223Z,5.10
2019-02-16T02:57:59.669Z,5.10
2019-02-16T03:00:28.166Z,5.10
2019-02-16T03:02:56.629Z,5.10
2019-02-16T03:05:25.076Z,5.00
2019-02-16T03:07:53.557Z,5.20
2019-02-16T03:10:21.992Z,5.20
2019-02-16T03:12:50.446Z,5.10
2019-02-16T03:15:18.881Z,5.20
2019-02-16T03:17:47.330Z,5.20
2019-02-16T03:20:15.761Z,5.20
2019-02-16T03:23:11.772Z,5.30
2019-02-16T03:25:41.178Z,5.30
2019-02-16T03:28:43.991Z,5.30
2019-02-16T03:31:44.051Z,5.20
2019-02-16T03:34:24.335Z,5.40
2019-02-16T03:37:12.382Z,5.20
2019-02-16T03:39:42.585Z,5.20
2019-02-16T03:42:11.010Z,5.20
2019-02-16T03:44:39.458Z,5.10
2019-02-16T03:47:07.892Z,5.10
2019-02-16T03:49:36.334Z,5.00
2019-02-16T03:52:13.300Z,4.90
2019-02-16T03:54:34.963Z,4.90
2019-02-16T03:57:03.453Z,4.90
2019-02-16T03:59:32.080Z,5.00
2019-02-16T04:02:00.509Z,4.90
2019-02-16T04:04:28.951Z,4.80
2019-02-16T04:06:57.403Z,4.90
2019-02-16T04:09:25.841Z,5.00
2019-02-16T04:11:54.297Z,5.00
2019-02-16T04:14:22.727Z,5.00
2019-02-16T04:16:51.184Z,4.90
2019-02-16T04:19:19.612Z,4.90
2019-02-16T04:21:48.052Z,4.90
2019-02-16T04:24:16.491Z,5.00
2019-02-16T04:26:44.943Z,5.00
2019-02-16T04:29:13.372Z,5.00
2019-02-16T04:31:41.832Z,5.00
2019-02-16T04:34:10.398Z,4.80
2019-02-16T04:36:38.911Z,4.80
2019-02-16T04:39:07.358Z,4.90
2019-02-16T04:41:35.873Z,4.90
2019-02-16T04:44:04.297Z,4.70
2019-02-16T04:46:32.745Z,4.80
2019-02-16T04:49:01.243Z,4.70
2019-02-16T04:51:29.707Z,4.70
2019-02-16T04:53:58.143Z,4.70
2019-02-16T04:56:26.608Z,4.70
2019-02-16T04:58:55.032Z,4.70
2019-02-16T05:01:23.700Z,4.80
2019-02-16T05:03:52.129Z,4.80
2019-02-16T05:06:20.581Z,4.70
2019-02-16T05:08:49.023Z,4.80
2019-02-16T05:11:17.473Z,4.80
2019-02-16T05:13:45.901Z,4.80
2019-02-16T05:16:14.346Z,4.70
2019-02-16T05:18:42.803Z,4.70
2019-02-16T05:21:11.345Z,4.70
2019-02-16T05:23:39.797Z,4.70
2019-02-16T05:26:08.238Z,4.60
2019-02-16T05:28:36.682Z,4.60
2019-02-16T05:31:05.136Z,4.50
2019-02-16T05:33:33.655Z,4.50
2019-02-16T05:36:02.106Z,4.50
2019-02-16T05:38:30.556Z,4.50
2019-02-16T05:40:58.986Z,4.40
2019-02-16T05:43:27.443Z,4.40
2019-02-16T05:45:55.873Z,4.30
2019-02-16T05:48:24.350Z,4.30
2019-02-16T05:50:52.782Z,4.30
2019-02-16T05:53:21.236Z,4.30
2019-02-16T05:55:49.671Z,4.30
2019-02-16T05:58:18.106Z,4.40
2019-02-16T06:00:46.546Z,4.40
2019-02-16T06:03:15.075Z,4.30
2019-02-16T06:05:43.498Z,4.40
2019-02-16T06:08:11.935Z,4.30
2019-02-16T06:10:40.372Z,4.20
2019-02-16T06:13:08.825Z,4.20
2019-02-16T06:15:37.278Z,4.20
2019-02-16T06:18:05.779Z,4.10
2019-02-16T06:20:34.205Z,4.20
2019-02-16T06:23:04.641Z,4.20
2019-02-16T06:25:32.809Z,4.30
2019-02-16T06:28:01.269Z,4.20
2019-02-16T06:30:29.709Z,4.30
2019-02-16T06:32:58.165Z,4.40
2019-02-16T06:35:28.249Z,4.60
2019-02-16T06:37:56.690Z,4.70
2019-02-16T06:40:25.134Z,4.80
2019-02-16T06:42:53.586Z,5.10
2019-02-16T06:45:22.019Z,5.20
2019-02-16T06:47:50.667Z,5.00
2019-02-16T06:50:19.100Z,4.90
2019-02-16T06:52:47.591Z,5.40
2019-02-16T06:55:16.021Z,5.40
2019-02-16T06:57:46.108Z,5.40
2019-02-16T07:00:15.819Z,5.80
2019-02-16T07:02:44.346Z,6.50
2019-02-16T07:05:12.916Z,6.80
2019-02-16T07:07:41.373Z,7.10
2019-02-16T07:10:09.874Z,7.50
2019-02-16T07:12:38.329Z,7.70
2019-02-16T07:15:07.410Z,7.90
2019-02-16T07:17:40.656Z,8.20
2019-02-16T07:20:09.501Z,8.20
2019-02-16T07:22:37.940Z,8.20
2019-02-16T07:25:07.323Z,8.70
2019-02-16T07:27:35.748Z,9.10
2019-02-16T07:30:06.037Z,8.90
2019-02-16T07:32:34.468Z,9.50
2019-02-16T07:35:02.923Z,9.10
2019-02-16T07:37:31.370Z,9.60
2019-02-16T07:39:59.819Z,9.60
2019-02-16T07:42:29.906Z,9.80
2019-02-16T07:45:08.562Z,10.30
2019-02-16T07:47:38.665Z,10.80
2019-02-16T07:50:26.517Z,11.80
2019-02-16T07:52:56.594Z,11.50
2019-02-16T07:55:29.174Z,11.10
2019-02-16T07:57:59.256Z,11.20
2019-02-16T08:00:29.346Z,11.50
2019-02-16T08:03:02.379Z,11.60
2019-02-16T08:05:32.471Z,11.60
2019-02-16T08:08:02.534Z,11.60
2019-02-16T08:10:32.638Z,11.70
2019-02-16T08:13:11.288Z,12.50
2019-02-16T08:15:44.411Z,12.60
2019-02-16T08:18:30.435Z,12.30
2019-02-16T08:21:02.937Z,12.40
2019-02-16T08:23:41.447Z,12.70
2019-02-16T08:26:19.998Z,13.00
2019-02-16T08:28:58.534Z,13.30
2019-02-16T08:31:28.634Z,13.50
2019-02-16T08:34:13.542Z,14.20
2019-02-16T08:36:52.458Z,13.80
2019-02-16T08:39:22.535Z,14.80
2019-02-16T08:42:08.302Z,14.00
2019-02-16T08:44:41.323Z,14.00
2019-02-16T08:47:26.315Z,14.10
2019-02-16T08:49:56.395Z,14.40
2019-02-16T08:52:38.265Z,15.30
2019-02-16T08:55:08.479Z,15.20
2019-02-16T08:57:44.332Z,15.00
2019-02-16T09:00:14.535Z,14.80
2019-02-16T09:03:02.546Z,15.20
2019-02-16T09:05:32.662Z,15.00
2019-02-16T09:08:02.734Z,15.30
2019-02-16T09:10:32.814Z,15.20
2019-02-16T09:13:02.896Z,15.20
2019-02-16T09:15:35.422Z,15.20
2019-02-16T09:22:27.758Z,15.50
2019-02-16T09:25:06.621Z,15.20
2019-02-16T09:27:36.766Z,15.60
2019-02-16T09:30:13.091Z,15.60
2019-02-16T09:32:46.197Z,16.70
2019-02-16T09:35:19.010Z,16.90
2019-02-16T09:37:57.798Z,16.80
2019-02-16T09:40:30.541Z,16.80
2019-02-16T09:43:12.390Z,16.10
2019-02-16T09:45:45.421Z,17.10
2019-02-16T09:48:18.671Z,16.70
2019-02-16T09:50:48.766Z,16.20
2019-02-16T09:53:18.906Z,16.60
2019-02-16T09:55:51.693Z,18.00
2019-02-16T09:58:24.711Z,17.60
2019-02-16T10:01:09.591Z,17.80
2019-02-16T10:03:57.528Z,17.60
2019-02-16T10:06:36.318Z,17.00
2019-02-16T10:09:07.338Z,16.90
2019-02-16T10:11:39.840Z,17.60
2019-02-16T10:14:25.671Z,17.60
2019-02-16T10:17:04.602Z,17.30
2019-02-16T10:19:34.675Z,17.20
2019-02-16T10:22:04.782Z,17.30
2019-02-16T10:24:34.853Z,17.50
2019-02-16T10:27:04.956Z,17.00
2019-02-16T10:29:50.795Z,17.40
2019-02-16T10:32:29.412Z,18.40
2019-02-16T10:35:02.042Z,19.50
2019-02-16T10:37:38.023Z,18.20
2019-02-16T10:40:08.235Z,18.50
2019-02-16T10:42:50.057Z,18.20
2019-02-16T10:45:25.855Z,19.60
2019-02-16T10:48:01.605Z,18.90
2019-02-16T10:50:31.697Z,18.90
2019-02-16T10:53:01.847Z,18.60
2019-02-16T10:55:49.707Z,17.90
2019-02-16T10:58:37.687Z,18.40
2019-02-16T11:01:07.934Z,17.90
2019-02-16T11:03:38.050Z,18.20
2019-02-16T11:06:17.369Z,18.40
2019-02-16T11:08:56.088Z,18.40
2019-02-16T11:11:34.957Z,18.20
2019-02-16T11:14:16.777Z,19.20
2019-02-16T11:16:49.625Z,19.80
2019-02-16T11:19:22.410Z,19.80
2019-02-16T11:21:55.080Z,20.80
2019-02-16T11:24:36.075Z,20.90
2019-02-16T11:27:08.567Z,19.60
2019-02-16T11:29:54.682Z,19.10
2019-02-16T11:32:30.416Z,19.50
2019-02-16T11:35:00.518Z,20.60
2019-02-16T11:37:45.698Z,20.60
2019-02-16T11:40:18.488Z,20.00
2019-02-16T11:42:51.276Z,19.90
2019-02-16T11:45:24.158Z,21.80
2019-02-16T11:48:00.754Z,21.60
2019-02-16T11:50:45.822Z,20.10
2019-02-16T11:53:30.882Z,19.60
2019-02-16T11:56:03.691Z,19.70
2019-02-16T11:58:33.784Z,20.10
2019-02-16T12:01:03.855Z,20.60
2019-02-16T12:03:39.671Z,19.80
2019-02-16T12:06:09.751Z,19.80
2019-02-16T12:08:42.621Z,20.20
2019-02-16T12:11:15.707Z,19.70
2019-02-16T12:13:45.825Z,19.80
2019-02-16T12:16:18.863Z,19.80
2019-02-16T12:18:48.974Z,20.20
2019-02-16T12:21:19.040Z,20.20
2019-02-16T12:23:54.892Z,20.30
2019-02-16T12:26:24.970Z,20.60
2019-02-16T12:28:57.783Z,21.20
2019-02-16T12:31:30.603Z,20.50
2019-02-16T12:34:00.711Z,20.20
2019-02-16T12:36:39.287Z,19.90
2019-02-16T12:39:09.461Z,20.30
2019-02-16T12:41:51.146Z,20.10
2019-02-16T12:44:23.909Z,19.90
2019-02-16T12:47:02.695Z,20.70
2019-02-16T12:49:38.490Z,20.70
2019-02-16T12:52:13.973Z,20.50
2019-02-16T12:54:46.784Z,20.00
2019-02-16T12:57:16.871Z,20.10
2019-02-16T13:00:01.782Z,19.90
2019-02-16T13:02:49.576Z,20.20
2019-02-16T13:05:19.688Z,20.20
2019-02-16T13:07:49.771Z,20.80
2019-02-16T13:10:19.850Z,20.90
2019-02-16T13:13:05.003Z,21.20
2019-02-16T13:15:52.682Z,20.30
2019-02-16T13:18:31.480Z,20.50
2019-02-16T13:21:01.568Z,20.90
2019-02-16T13:23:31.635Z,20.70
2019-02-16T13:26:04.518Z,20.80
2019-02-16T13:28:37.253Z,21.50
2019-02-16T13:31:23.374Z,21.70
2019-02-16T13:33:53.446Z,20.50
2019-02-16T13:36:32.701Z,21.10
2019-02-16T13:39:20.971Z,21.20
2019-02-16T13:41:51.066Z,21.30
2019-02-16T13:44:21.148Z,21.50
2019-02-16T13:47:03.053Z,21.00
2019-02-16T13:49:41.885Z,21.40
2019-02-16T13:52:17.722Z,21.20
2019-02-16T13:54:59.304Z,20.90
2019-02-16T13:57:29.458Z,21.00
2019-02-16T13:59:59.532Z,20.70
2019-02-16T14:02:38.758Z,20.80
2019-02-16T14:05:09.062Z,21.20
2019-02-16T14:07:39.138Z,20.90
2019-02-16T14:10:12.332Z,20.70
2019-02-16T14:12:58.558Z,20.50
2019-02-16T14:15:29.598Z,20.30
2019-02-16T14:17:58.192Z,20.30
2019-02-16T14:20:26.659Z,20.20
2019-02-16T14:22:55.110Z,20.00
2019-02-16T14:25:25.224Z,19.90
2019-02-16T14:27:53.672Z,19.60
2019-02-16T14:30:22.114Z,19.50
2019-02-16T14:32:50.578Z,19.30
2019-02-16T14:35:19.087Z,19.10
2019-02-16T14:37:57.639Z,18.60
2019-02-16T14:40:27.733Z,18.30
2019-02-16T14:42:56.189Z,18.30
2019-02-16T14:45:24.655Z,18.00
2019-02-16T14:47:53.151Z,17.90
2019-02-16T14:50:21.579Z,17.90
2019-02-16T14:52:50.079Z,17.90
2019-02-16T14:55:19.178Z,17.80
2019-02-16T14:57:47.659Z,17.70
2019-02-16T15:00:16.215Z,17.40
2019-02-16T15:02:44.725Z,17.50
2019-02-16T15:05:13.204Z,17.50
2019-02-16T15:07:41.701Z,17.50
2019-02-16T15:10:11.913Z,17.40
2019-02-16T15:12:40.365Z,17.40
2019-02-16T15:15:12.359Z,17.40
2019-02-16T15:17:40.805Z,17.40
2019-02-16T15:20:11.915Z,17.30
2019-02-16T15:22:40.361Z,17.20
2019-02-16T15:25:10.848Z,17.10
2019-02-16T15:27:39.621Z,17.30
2019-02-16T15:30:17.095Z,17.10
2019-02-16T15:32:45.629Z,17.10
2019-02-16T15:35:14.094Z,17.00
2019-02-16T15:37:42.544Z,16.80
2019-02-16T15:40:13.349Z,17.00
2019-02-16T15:42:41.832Z,16.80
2019-02-16T15:45:12.403Z,16.60
2019-02-16T15:47:40.846Z,16.70
2019-02-16T15:50:11.821Z,16.60
2019-02-16T15:52:40.270Z,16.40
2019-02-16T15:55:10.567Z,16.10
2019-02-16T15:57:39.034Z,16.10
2019-02-16T16:00:18.535Z,16.10
2019-02-16T16:02:47.032Z,15.90
2019-02-16T16:05:15.548Z,16.00
2019-02-16T16:07:45.712Z,15.80
2019-02-16T16:10:15.807Z,15.50
2019-02-16T16:12:45.917Z,15.40
2019-02-16T16:15:21.446Z,15.40
2019-02-16T16:18:00.070Z,15.20
2019-02-16T16:20:33.009Z,15.10
2019-02-16T16:23:03.074Z,15.10
2019-02-16T16:25:35.908Z,14.90
2019-02-16T16:28:22.276Z,14.80
2019-02-16T16:30:57.898Z,14.60
2019-02-16T16:33:36.897Z,14.70
2019-02-16T16:36:21.647Z,14.60
2019-02-16T16:38:54.442Z,14.50
2019-02-16T16:41:36.334Z,14.50
2019-02-16T16:44:15.083Z,14.30
2019-02-16T16:46:51.101Z,14.20
2019-02-16T16:49:21.174Z,14.10
2019-02-16T16:52:09.380Z,14.00
2019-02-16T16:54:55.575Z,13.90
2019-02-16T16:57:25.744Z,13.90
2019-02-16T16:59:58.805Z,13.70
2019-02-16T17:02:40.809Z,13.60
2019-02-16T17:05:19.403Z,13.60
2019-02-16T17:07:51.911Z,13.50
2019-02-16T17:10:37.983Z,13.30
2019-02-16T17:13:10.923Z,13.30
2019-02-16T17:15:43.711Z,13.40
2019-02-16T17:18:13.782Z,13.20
2019-02-16T17:20:46.619Z,13.30
2019-02-16T17:23:22.791Z,13.10
2019-02-16T17:25:52.875Z,13.00
2019-02-16T17:28:28.623Z,13.00
2019-02-16T17:31:10.228Z,12.80
2019-02-16T17:33:40.318Z,12.80
2019-02-16T17:36:10.415Z,12.60
2019-02-16T17:38:43.213Z,12.60
2019-02-16T17:41:29.290Z,12.50
2019-02-16T17:44:02.081Z,12.40
2019-02-16T17:46:37.898Z,12.40
2019-02-16T17:49:10.413Z,12.40
2019-02-16T17:51:46.342Z,12.30
2019-02-16T17:54:16.428Z,12.30
2019-02-16T17:56:54.993Z,12.20
2019-02-16T17:59:27.508Z,12.20
2019-02-16T18:01:57.588Z,12.10
2019-02-16T18:04:36.788Z,12.10
2019-02-16T18:07:18.572Z,11.90
2019-02-16T18:09:51.166Z,11.80
2019-02-16T18:12:23.984Z,11.90
2019-02-16T18:14:56.859Z,11.90
2019-02-16T18:17:29.734Z,11.60
2019-02-16T18:20:11.766Z,11.60
2019-02-16T18:22:41.916Z,11.80
2019-02-16T18:25:14.983Z,11.70
2019-02-16T18:28:01.335Z,11.60
2019-02-16T18:30:43.436Z,11.50
2019-02-16T18:33:31.659Z,11.50
2019-02-16T18:36:10.467Z,11.50
2019-02-16T18:38:46.599Z,11.40
2019-02-16T18:41:34.893Z,11.20
2019-02-16T18:44:19.856Z,11.20
2019-02-16T18:46:56.088Z,11.00
2019-02-16T18:49:42.450Z,11.00
2019-02-16T18:52:12.517Z,10.90
2019-02-16T18:54:48.775Z,10.80
2019-02-16T18:57:18.959Z,10.70
2019-02-16T18:59:49.037Z,10.70
2019-02-16T19:02:36.795Z,10.60
2019-02-16T19:05:24.085Z,10.50
2019-02-16T19:07:57.163Z,10.70
2019-02-16T19:10:30.249Z,10.60
2019-02-16T19:13:03.116Z,10.60
2019-02-16T19:15:33.325Z,10.50
2019-02-16T19:18:21.534Z,10.40
2019-02-16T19:21:07.716Z,10.30
2019-02-16T19:23:43.854Z,10.20
2019-02-16T19:26:19.536Z,10.20
2019-02-16T19:28:52.211Z,10.20
2019-02-16T19:31:38.381Z,10.20
2019-02-16T19:34:14.334Z,10.00
2019-02-16T19:36:44.623Z,9.90
2019-02-16T19:39:20.660Z,9.80
2019-02-16T19:42:09.020Z,9.80
2019-02-16T19:44:39.099Z,9.80
2019-02-16T19:47:24.117Z,9.70
2019-02-16T19:50:00.342Z,9.80
2019-02-16T19:52:48.404Z,9.70
2019-02-16T19:55:18.478Z,9.60
2019-02-16T19:57:51.275Z,9.60
2019-02-16T20:00:21.375Z,9.50
2019-02-16T20:02:53.995Z,9.40
2019-02-16T20:05:24.220Z,9.40
2019-02-16T20:07:59.859Z,9.30
2019-02-16T20:10:32.742Z,9.30
2019-02-16T20:13:11.744Z,9.10
2019-02-16T20:15:47.682Z,9.10
2019-02-16T20:18:17.789Z,9.20
2019-02-16T20:20:56.652Z,9.00
2019-02-16T20:23:29.642Z,9.00
2019-02-16T20:26:08.486Z,9.10
2019-02-16T20:28:47.708Z,8.90
2019-02-16T20:31:30.001Z,8.70
2019-02-16T20:34:00.162Z,8.70
2019-02-16T20:36:33.172Z,8.80
2019-02-16T20:39:06.019Z,8.70
2019-02-16T20:41:41.672Z,8.70
2019-02-16T20:44:11.859Z,8.50
2019-02-16T20:46:56.743Z,8.50
2019-02-16T20:49:26.922Z,8.60
2019-02-16T20:51:57.005Z,8.60
2019-02-16T20:54:32.910Z,8.60
2019-02-16T20:57:03.042Z,8.60
2019-02-16T20:59:35.855Z,8.50
2019-02-16T21:02:08.668Z,8.50
2019-02-16T21:04:38.745Z,8.40
2019-02-16T21:07:14.535Z,8.40
2019-02-16T21:09:44.876Z,8.20
2019-02-16T21:12:31.019Z,8.30
2019-02-16T21:15:01.090Z,8.30
2019-02-16T21:17:33.625Z,8.20
2019-02-16T21:20:18.539Z,8.20
2019-02-16T21:22:58.426Z,8.20
2019-02-16T21:25:43.800Z,8.30
2019-02-16T21:28:16.914Z,8.20
2019-02-16T21:31:02.730Z,8.10
2019-02-16T21:33:38.718Z,8.00
2019-02-16T21:36:11.600Z,8.00
2019-02-16T21:38:41.696Z,7.90
2019-02-16T21:41:14.495Z,7.90
2019-02-16T21:44:02.442Z,7.80
2019-02-16T21:46:44.600Z,7.70
2019-02-16T21:49:26.174Z,7.70
2019-02-16T21:52:04.865Z,7.60
2019-02-16T21:54:43.492Z,7.60
2019-02-16T21:57:19.443Z,7.60
2019-02-16T21:59:58.697Z,7.50
2019-02-16T22:02:28.810Z,7.40
2019-02-16T22:05:14.823Z,7.40
2019-02-16T22:07:44.924Z,7.40
2019-02-16T22:10:15.008Z,7.40
2019-02-16T22:12:59.674Z,7.40
2019-02-16T22:15:28.199Z,7.40
2019-02-16T22:17:56.908Z,7.30
2019-02-16T22:20:25.346Z,7.30
2019-02-16T22:22:53.787Z,7.30
2019-02-16T22:25:22.278Z,7.30
2019-02-16T22:27:50.805Z,7.20
2019-02-16T22:30:19.253Z,7.20
2019-02-16T22:32:47.716Z,7.20
2019-02-16T22:35:16.223Z,7.10
2019-02-16T22:37:44.646Z,7.00
2019-02-16T22:40:13.178Z,7.00
2019-02-16T22:42:41.612Z,7.00
2019-02-16T22:45:11.710Z,6.90
2019-02-16T22:47:40.154Z,6.90
2019-02-16T22:50:10.432Z,6.80
2019-02-16T22:52:38.859Z,6.80
2019-02-16T22:55:08.966Z,6.80
2019-02-16T22:57:37.420Z,6.80
2019-02-16T23:00:09.023Z,6.80
2019-02-16T23:02:37.471Z,6.80
2019-02-16T23:05:06.362Z,6.70
2019-02-16T23:07:34.891Z,6.70
2019-02-16T23:10:05.045Z,6.80
2019-02-16T23:16:13.269Z,6.70
2019-02-16T23:18:41.696Z,6.70
2019-02-16T23:21:10.223Z,6.50
2019-02-16T23:23:38.657Z,6.50
2019-02-16T23:26:07.186Z,6.40
2019-02-16T23:28:38.852Z,6.40
2019-02-16T23:31:05.943Z,6.40
2019-02-16T23:33:34.383Z,6.50
2019-02-16T23:36:02.837Z,6.50
2019-02-16T23:38:31.286Z,6.30
2019-02-16T23:40:59.758Z,6.40
2019-02-16T23:43:28.208Z,6.30
2019-02-16T23:45:56.641Z,6.30
2019-02-16T23:48:25.087Z,6.30
2019-02-16T23:50:53.590Z,6.30
2019-02-16T23:53:22.048Z,6.30
2019-02-16T23:55:50.489Z,6.20
2019-02-16T23:58:18.957Z,6.30
